Terminal Aerodrome Forecast
Issued by NWS Cleveland, OH

Home | Current Version | Previous Version | Text Only | Print | Product List | Glossary On
Versions: 1 2 3 4 5 6 7 8 9 10 11 12 13 14 15 16 17 18 19 20 21 22 23
732
FTUS41 KCLE 291120
TAFMFD
TAF
KMFD 291120Z 2912/3012 13006KT P6SM SCT004 OVC012
      TEMPO 2913/2917 BKN004
     FM291700 06010KT P6SM VCSH BKN006 OVC012
      TEMPO 2923/3003 4SM -RA OVC003=

USA.gov is the U.S. government's official web portal to all federal, state and local government web resources and services.